createdAt,value
2023-05-08T00:00:20.425Z,100787.69
2023-05-08T00:02:49.856Z,100782.25
2023-05-08T00:05:16.317Z,100789.66
2023-05-08T00:07:42.921Z,100789.66
2023-05-08T00:10:13.002Z,100790.63
2023-05-08T00:12:39.547Z,100788.94
2023-05-08T00:15:06.758Z,100796.19
2023-05-08T00:17:34.063Z,100787.69
2023-05-08T00:20:00.672Z,100780.84
2023-05-08T00:22:30.164Z,100789.50
2023-05-08T00:24:56.719Z,100787.22
2023-05-08T00:27:23.067Z,100790.97
2023-05-08T00:29:52.013Z,100792.78
2023-05-08T00:32:21.023Z,100786.63
2023-05-08T00:34:50.288Z,100783.47
2023-05-08T00:37:16.869Z,100784.47
2023-05-08T00:39:43.783Z,100783.22
2023-05-08T00:42:10.325Z,100788.25
2023-05-08T00:44:39.449Z,100780.00
2023-05-08T00:47:07.300Z,100782.75
2023-05-08T00:49:35.614Z,100783.09
2023-05-08T00:52:04.735Z,100788.09
2023-05-08T00:54:31.607Z,100792.28
2023-05-08T00:56:58.104Z,100789.66
2023-05-08T00:59:27.134Z,100792.28
2023-05-08T01:01:56.969Z,100790.97
2023-05-08T01:04:25.140Z,100790.00
2023-05-08T01:06:51.646Z,100797.28
2023-05-08T01:09:18.076Z,100790.00
2023-05-08T01:11:56.050Z,100795.28
2023-05-08T01:14:29.808Z,100790.25
2023-05-08T01:17:11.820Z,100791.50
2023-05-08T01:19:41.209Z,100792.00
2023-05-08T01:22:16.491Z,100804.41
2023-05-08T01:25:04.276Z,100801.06
2023-05-08T01:28:06.674Z,100798.53
2023-05-08T01:30:38.885Z,100804.69
2023-05-08T01:33:17.329Z,100800.47
2023-05-08T01:35:49.975Z,100792.09
2023-05-08T01:38:26.664Z,100804.81
2023-05-08T01:40:56.656Z,100806.63
2023-05-08T01:43:31.381Z,100804.94
2023-05-08T01:46:01.609Z,100805.50
2023-05-08T01:48:37.591Z,100804.41
2023-05-08T01:51:11.914Z,100803.00
2023-05-08T01:53:43.034Z,100806.97
2023-05-08T01:56:18.988Z,100811.28
2023-05-08T01:58:49.823Z,100816.72
2023-05-08T02:01:18.889Z,100814.16
2023-05-08T02:03:46.579Z,100804.47
2023-05-08T02:06:17.269Z,100818.25
2023-05-08T02:08:44.877Z,100814.63
2023-05-08T02:11:13.491Z,100821.13
2023-05-08T02:13:41.537Z,100810.53
2023-05-08T02:16:11.469Z,100810.31
2023-05-08T02:18:40.254Z,100811.97
2023-05-08T02:21:09.433Z,100807.19
2023-05-08T02:23:36.294Z,100815.84
2023-05-08T02:26:04.590Z,100809.41
2023-05-08T02:28:35.122Z,100817.91
2023-05-08T02:31:04.916Z,100813.03
2023-05-08T02:33:32.307Z,100810.63
2023-05-08T02:36:00.499Z,100819.56
2023-05-08T02:38:27.263Z,100820.75
2023-05-08T02:41:02.270Z,100808.25
2023-05-08T02:43:32.006Z,100818.56
2023-05-08T02:46:10.890Z,100822.47
2023-05-08T02:49:01.923Z,100815.47
2023-05-08T02:51:56.356Z,100829.44
2023-05-08T02:54:33.169Z,100826.88
2023-05-08T02:57:14.454Z,100830.13
2023-05-08T02:59:45.794Z,100816.91
2023-05-08T03:02:40.580Z,100824.13
2023-05-08T03:05:15.305Z,100817.59
2023-05-08T03:07:43.633Z,100818.56
2023-05-08T03:10:13.276Z,100815.94
2023-05-08T03:12:44.889Z,100816.78
2023-05-08T03:15:23.968Z,100817.88
2023-05-08T03:17:54.714Z,100823.88
2023-05-08T03:20:24.693Z,100805.47
2023-05-08T03:22:54.689Z,100819.41
2023-05-08T03:25:21.739Z,100814.25
2023-05-08T03:27:49.049Z,100818.56
2023-05-08T03:30:16.895Z,100817.16
2023-05-08T03:32:46.908Z,100816.91
2023-05-08T03:35:15.416Z,100820.25
2023-05-08T03:37:43.236Z,100822.06
2023-05-08T03:40:10.475Z,100822.06
2023-05-08T03:42:37.559Z,100826.66
2023-05-08T03:45:04.947Z,100816.06
2023-05-08T03:47:32.248Z,100822.19
2023-05-08T03:50:01.491Z,100820.81
2023-05-08T03:52:27.929Z,100817.47
2023-05-08T03:54:56.929Z,100820.97
2023-05-08T03:57:33.460Z,100823.59
2023-05-08T04:00:11.100Z,100821.09
2023-05-08T04:02:42.303Z,100824.44
2023-05-08T04:05:26.958Z,100821.66
2023-05-08T04:08:03.072Z,100820.56
2023-05-08T04:10:32.393Z,100823.34
2023-05-08T04:13:07.215Z,100825.03
2023-05-08T04:15:38.445Z,100829.47
2023-05-08T04:18:09.332Z,100827.94
2023-05-08T04:20:40.320Z,100824.56
2023-05-08T04:23:08.755Z,100826.97
2023-05-08T04:25:39.748Z,100825.03
2023-05-08T04:28:06.279Z,100833.66
2023-05-08T04:30:35.618Z,100830.88
2023-05-08T04:33:05.077Z,100835.56
2023-05-08T04:35:33.827Z,100840.97
2023-05-08T04:38:00.489Z,100834.72
2023-05-08T04:40:26.907Z,100837.94
2023-05-08T04:42:57.430Z,100834.59
2023-05-08T04:45:24.084Z,100842.13
2023-05-08T04:47:50.509Z,100839.94
2023-05-08T04:50:16.976Z,100842.47
2023-05-08T04:52:46.568Z,100847.06
2023-05-08T04:55:13.281Z,100852.47
2023-05-08T04:57:40.473Z,100851.63
2023-05-08T05:00:07.524Z,100854.03
2023-05-08T05:02:34.250Z,100857.25
2023-05-08T05:05:01.385Z,100863.38
2023-05-08T05:07:27.961Z,100866.88
2023-05-08T05:09:54.427Z,100868.41
2023-05-08T05:12:24.180Z,100878.88
2023-05-08T05:14:51.240Z,100873.44
2023-05-08T05:17:18.070Z,100879.00
2023-05-08T05:19:44.510Z,100873.44
2023-05-08T05:22:11.616Z,100881.03
2023-05-08T05:24:39.857Z,100879.94
2023-05-08T05:27:09.837Z,100878.47
2023-05-08T05:29:36.412Z,100875.72
2023-05-08T05:32:03.445Z,100875.72
2023-05-08T05:34:30.311Z,100877.84
2023-05-08T05:36:56.738Z,100880.09
2023-05-08T05:39:23.283Z,100881.06
2023-05-08T05:41:52.569Z,100890.81
2023-05-08T05:44:18.976Z,100886.63
2023-05-08T05:46:47.847Z,100885.78
2023-05-08T05:49:14.379Z,100892.78
2023-05-08T05:51:40.794Z,100895.03
2023-05-08T05:54:07.320Z,100891.41
2023-05-08T05:56:33.740Z,100896.00
2023-05-08T05:59:02.617Z,100898.38
2023-05-08T06:01:29.159Z,100897.53
2023-05-08T06:04:00.686Z,100896.47
2023-05-08T06:06:27.585Z,100901.75
2023-05-08T06:08:54.323Z,100905.13
2023-05-08T06:11:22.676Z,100905.13
2023-05-08T06:13:50.462Z,100904.84
2023-05-08T06:16:17.325Z,100905.31
2023-05-08T06:18:43.801Z,100904.34
2023-05-08T06:21:10.487Z,100899.38
2023-05-08T06:23:37.264Z,100905.81
2023-05-08T06:26:03.853Z,100906.97
2023-05-08T06:28:30.453Z,100913.53
2023-05-08T06:30:56.825Z,100908.94
2023-05-08T06:33:26.909Z,100908.94
2023-05-08T06:35:53.895Z,100912.28
2023-05-08T06:38:20.424Z,100905.19
2023-05-08T06:40:47.975Z,100914.53
2023-05-08T06:43:14.433Z,100911.72
2023-05-08T06:45:40.855Z,100912.56
2023-05-08T06:48:07.730Z,100913.28
2023-05-08T06:50:34.291Z,100909.22
2023-05-08T06:53:01.275Z,100909.75
2023-05-08T06:55:30.599Z,100915.31
2023-05-08T06:57:57.152Z,100909.28
2023-05-08T07:00:26.052Z,100918.66
2023-05-08T07:02:52.676Z,100918.41
2023-05-08T07:05:21.819Z,100916.75
2023-05-08T07:07:48.249Z,100921.22
2023-05-08T07:10:14.751Z,100930.16
2023-05-08T07:12:41.322Z,100931.00
2023-05-08T07:15:24.026Z,100926.00
2023-05-08T07:17:52.974Z,100929.38
2023-05-08T07:20:19.664Z,100925.75
2023-05-08T07:22:46.675Z,100925.47
2023-05-08T07:25:16.235Z,100926.84
2023-05-08T07:27:43.032Z,100925.75
2023-05-08T07:30:09.830Z,100930.50
2023-05-08T07:32:38.464Z,100928.53
2023-05-08T07:35:09.738Z,100934.81
2023-05-08T07:37:37.133Z,100936.34
2023-05-08T07:40:03.972Z,100934.69
2023-05-08T07:42:30.353Z,100933.97
2023-05-08T07:44:57.301Z,100931.31
2023-05-08T07:47:23.916Z,100944.13
2023-05-08T07:49:53.350Z,100937.94
2023-05-08T07:52:19.927Z,100937.69
2023-05-08T07:54:46.534Z,100941.03
2023-05-08T07:57:13.038Z,100942.97
2023-05-08T07:59:41.871Z,100939.34
2023-05-08T08:02:11.393Z,100944.66
2023-05-08T08:04:38.105Z,100941.75
2023-05-08T08:07:04.609Z,100935.72
2023-05-08T08:09:31.263Z,100942.44
2023-05-08T08:11:58.254Z,100939.09
2023-05-08T08:14:24.621Z,100937.13
2023-05-08T08:16:51.215Z,100941.19
2023-05-08T08:19:17.762Z,100944.69
2023-05-08T08:21:44.813Z,100950.00
2023-05-08T08:24:12.609Z,100949.16
2023-05-08T08:26:39.027Z,100948.91
2023-05-08T08:29:05.585Z,100951.72
2023-05-08T08:31:32.151Z,100951.44
2023-05-08T08:34:01.037Z,100948.78
2023-05-08T08:36:28.043Z,100949.63
2023-05-08T08:38:54.482Z,100955.41
2023-05-08T08:41:21.747Z,100947.63
2023-05-08T08:43:49.051Z,100950.16
2023-05-08T08:46:20.221Z,100950.19
2023-05-08T08:48:47.376Z,100952.56
2023-05-08T08:51:33.417Z,100954.81
2023-05-08T08:54:07.731Z,100950.22
2023-05-08T08:56:36.257Z,100956.84
2023-05-08T08:59:04.476Z,100956.97
2023-05-08T09:01:36.360Z,100949.69
2023-05-08T09:04:02.973Z,100950.16
2023-05-08T09:06:29.813Z,100955.88
2023-05-08T09:08:57.951Z,100952.78
2023-05-08T09:11:25.258Z,100969.56
2023-05-08T09:13:51.897Z,100956.00
2023-05-08T09:16:18.954Z,100958.53
2023-05-08T09:18:45.830Z,100956.13
2023-05-08T09:21:12.992Z,100958.38
2023-05-08T09:24:02.461Z,100957.53
2023-05-08T09:26:35.336Z,100966.78
2023-05-08T09:29:24.299Z,100973.06
2023-05-08T09:31:53.068Z,100961.47
2023-05-08T09:34:28.002Z,100959.78
2023-05-08T09:37:09.816Z,100962.00
2023-05-08T09:39:36.260Z,100972.25
2023-05-08T09:42:06.751Z,100979.91
2023-05-08T09:44:46.395Z,100970.97
2023-05-08T09:47:14.484Z,100969.00
2023-05-08T09:50:23.189Z,100973.34
2023-05-08T09:52:52.671Z,100979.06
2023-05-08T09:55:19.374Z,100977.25
2023-05-08T09:57:57.187Z,100988.56
2023-05-08T10:00:26.336Z,100990.53
2023-05-08T10:03:03.982Z,100983.97
2023-05-08T10:05:36.261Z,100981.06
2023-05-08T10:08:23.842Z,100983.28
2023-05-08T10:10:53.548Z,100993.06
2023-05-08T10:13:20.837Z,100985.38
2023-05-08T10:15:54.421Z,100996.97
2023-05-08T10:18:28.517Z,100994.44
2023-05-08T10:20:58.217Z,100999.94
2023-05-08T10:23:26.702Z,100989.41
2023-05-08T10:25:56.978Z,100986.06
2023-05-08T10:28:33.184Z,100984.38
2023-05-08T10:31:03.141Z,100987.75
2023-05-08T10:33:31.700Z,100985.34
2023-05-08T10:36:00.054Z,100981.16
2023-05-08T10:38:27.315Z,100974.59
2023-05-08T10:40:57.881Z,100981.16
2023-05-08T10:43:29.236Z,100971.25
2023-05-08T10:45:57.814Z,100972.06
2023-05-08T10:48:45.799Z,100970.09
2023-05-08T10:51:41.119Z,100975.28
2023-05-08T10:54:38.312Z,100975.22
2023-05-08T10:57:09.568Z,100977.31
2023-05-08T10:59:39.377Z,100966.53
2023-05-08T11:02:08.377Z,100963.88
2023-05-08T11:04:35.178Z,100966.97
2023-05-08T11:07:02.194Z,100967.75
2023-05-08T11:09:33.732Z,100959.06
2023-05-08T11:12:07.983Z,100956.75
2023-05-08T11:14:38.512Z,100957.13
2023-05-08T11:17:08.965Z,100961.09
2023-05-08T11:19:36.362Z,100952.78
2023-05-08T11:22:23.584Z,100941.53
2023-05-08T11:25:02.209Z,100947.97
2023-05-08T11:27:40.634Z,100950.44
2023-05-08T11:30:35.100Z,100932.47
2023-05-08T11:33:07.135Z,100924.97
2023-05-08T11:35:54.420Z,100942.56
2023-05-08T11:38:27.822Z,100925.66
2023-05-08T11:40:58.429Z,100928.38
2023-05-08T11:43:35.998Z,100923.28
2023-05-08T11:46:10.422Z,100929.44
2023-05-08T11:48:36.814Z,100932.81
2023-05-08T11:51:04.036Z,100926.56
2023-05-08T11:53:31.378Z,100920.88
2023-05-08T11:55:59.221Z,100938.91
2023-05-08T11:58:25.933Z,100936.22
2023-05-08T12:00:57.903Z,100925.53
2023-05-08T12:03:27.273Z,100923.56
2023-05-08T12:05:58.837Z,100933.22
2023-05-08T12:08:25.625Z,100942.56
2023-05-08T12:10:56.779Z,100947.47
2023-05-08T12:13:25.605Z,100944.00
2023-05-08T12:15:57.824Z,100950.81
2023-05-08T12:18:26.312Z,100945.09
2023-05-08T12:21:00.465Z,100952.56
2023-05-08T12:23:30.960Z,100930.66
2023-05-08T12:26:02.177Z,100934.50
2023-05-08T12:28:29.390Z,100922.16
2023-05-08T12:30:56.214Z,100935.69
2023-05-08T12:33:24.229Z,100935.03
2023-05-08T12:35:50.908Z,100926.56
2023-05-08T12:38:17.352Z,100922.59
2023-05-08T12:40:55.431Z,100890.13
2023-05-08T12:43:31.286Z,100912.22
2023-05-08T12:45:57.846Z,100915.59
2023-05-08T12:48:24.232Z,100901.41
2023-05-08T12:50:50.567Z,100907.09
2023-05-08T12:53:19.398Z,100913.38
2023-05-08T12:55:54.580Z,100905.53
2023-05-08T12:58:25.445Z,100910.53
2023-05-08T13:01:12.890Z,100911.75
2023-05-08T13:03:42.545Z,100901.06
2023-05-08T13:06:23.024Z,100907.47
2023-05-08T13:08:57.432Z,100900.78
2023-05-08T13:11:31.711Z,100907.78
2023-05-08T13:13:58.243Z,100873.00
2023-05-08T13:16:27.297Z,100904.13
2023-05-08T13:18:58.611Z,100898.03
2023-05-08T13:21:27.233Z,100879.38
2023-05-08T13:23:55.408Z,100879.34
2023-05-08T13:26:21.807Z,100875.72
2023-05-08T13:28:51.327Z,100879.38
2023-05-08T13:31:17.756Z,100881.09
2023-05-08T13:33:44.295Z,100882.41
2023-05-08T13:36:10.731Z,100888.34
2023-05-08T13:38:37.069Z,100890.69
2023-05-08T13:41:03.516Z,100889.50
2023-05-08T13:43:30.815Z,100882.59
2023-05-08T13:45:59.638Z,100884.91
2023-05-08T13:48:26.010Z,100903.75
2023-05-08T13:50:52.414Z,100886.44
2023-05-08T13:53:18.982Z,100896.09
2023-05-08T13:55:46.220Z,100884.84
2023-05-08T13:58:15.251Z,100885.00
2023-05-08T14:00:41.672Z,100887.66
2023-05-08T14:03:08.916Z,100889.41
2023-05-08T14:05:35.501Z,100895.28
2023-05-08T14:08:01.868Z,100886.28
2023-05-08T14:10:31.076Z,100877.50
2023-05-08T14:12:57.501Z,100880.00
2023-05-08T14:15:27.027Z,100880.75
2023-05-08T14:18:01.144Z,100867.19
2023-05-08T14:20:27.832Z,100884.94
2023-05-08T14:22:54.235Z,100880.09
2023-05-08T14:25:20.780Z,100858.41
2023-05-08T14:27:47.329Z,100872.44
2023-05-08T14:30:15.286Z,100872.97
2023-05-08T14:32:41.831Z,100860.19
2023-05-08T14:35:10.314Z,100857.75
2023-05-08T14:37:37.392Z,100857.34
2023-05-08T14:40:07.295Z,100864.28
2023-05-08T14:42:33.715Z,100861.38
2023-05-08T14:45:01.388Z,100862.09
2023-05-08T14:47:28.119Z,100844.59
2023-05-08T14:49:55.857Z,100854.88
2023-05-08T14:52:22.537Z,100847.75
2023-05-08T14:54:53.797Z,100837.91
2023-05-08T14:57:21.451Z,100846.91
2023-05-08T15:02:20.631Z,100854.59
2023-05-08T15:04:47.202Z,100848.34
2023-05-08T15:07:14.536Z,100835.75
2023-05-08T15:09:44.269Z,100844.59
2023-05-08T15:12:10.660Z,100832.25
2023-05-08T15:14:39.649Z,100845.09
2023-05-08T15:17:06.375Z,100831.91
2023-05-08T15:19:32.756Z,100834.63
2023-05-08T15:22:00.013Z,100837.13
2023-05-08T15:24:26.425Z,100836.94
2023-05-08T15:26:53.045Z,100839.34
2023-05-08T15:29:21.547Z,100843.66
2023-05-08T15:31:48.423Z,100833.91
2023-05-08T15:34:14.837Z,100833.41
2023-05-08T15:36:41.837Z,100845.25
2023-05-08T15:39:10.724Z,100841.41
2023-05-08T15:41:39.951Z,100845.50
2023-05-08T15:44:06.948Z,100841.53
2023-05-08T15:46:34.075Z,100836.84
2023-05-08T15:49:03.372Z,100844.16
2023-05-08T15:51:29.822Z,100850.13
2023-05-08T15:53:57.635Z,100851.47
2023-05-08T15:56:26.721Z,100849.47
2023-05-08T15:58:53.743Z,100852.00
2023-05-08T16:01:20.698Z,100851.66
2023-05-08T16:03:52.836Z,100844.81
2023-05-08T16:06:19.235Z,100851.47
2023-05-08T16:08:45.803Z,100853.50
2023-05-08T16:11:14.681Z,100851.25
2023-05-08T16:13:41.984Z,100861.00
2023-05-08T16:16:08.727Z,100857.31
2023-05-08T16:18:35.483Z,100868.19
2023-05-08T16:21:01.889Z,100866.31
2023-05-08T16:23:29.063Z,100854.34
2023-05-08T16:25:58.085Z,100857.31
2023-05-08T16:28:24.500Z,100848.00
2023-05-08T16:30:50.946Z,100858.34
2023-05-08T16:33:17.347Z,100847.66
2023-05-08T16:35:44.483Z,100842.09
2023-05-08T16:38:21.916Z,100833.59
2023-05-08T16:40:48.275Z,100836.56
2023-05-08T16:43:14.738Z,100842.59
2023-05-08T16:45:42.790Z,100843.25
2023-05-08T16:48:09.415Z,100837.56
2023-05-08T16:50:37.073Z,100842.06
2023-05-08T16:53:05.231Z,100837.03
2023-05-08T16:55:32.730Z,100855.84
2023-05-08T16:57:59.099Z,100838.84
2023-05-08T17:00:27.326Z,100831.19
2023-05-08T17:02:54.436Z,100830.50
2023-05-08T17:05:20.939Z,100833.81
2023-05-08T17:07:47.542Z,100835.47
2023-05-08T17:10:13.920Z,100836.63
2023-05-08T17:12:40.621Z,100851.41
2023-05-08T17:15:07.760Z,100833.91
2023-05-08T17:17:34.225Z,100843.19
2023-05-08T17:20:00.761Z,100845.72
2023-05-08T17:22:27.181Z,100843.53
2023-05-08T17:24:53.573Z,100843.81
2023-05-08T17:27:19.955Z,100838.44
2023-05-08T17:29:49.329Z,100838.59
2023-05-08T17:32:15.710Z,100838.19
2023-05-08T17:34:42.146Z,100833.09
2023-05-08T17:37:08.602Z,100845.41
2023-05-08T17:39:34.976Z,100844.66
2023-05-08T17:42:01.332Z,100846.94
2023-05-08T17:44:27.732Z,100858.06
2023-05-08T17:46:54.160Z,100856.13
2023-05-08T17:49:20.701Z,100854.78
2023-05-08T17:51:47.531Z,100858.91
2023-05-08T17:54:14.071Z,100864.94
2023-05-08T17:56:46.424Z,100859.56
2023-05-08T17:59:12.842Z,100868.13
2023-05-08T18:01:39.272Z,100869.72
2023-05-08T18:04:05.837Z,100879.41
2023-05-08T18:06:37.280Z,100872.56
2023-05-08T18:09:06.130Z,100881.84
2023-05-08T18:11:38.211Z,100871.19
2023-05-08T18:14:07.290Z,100867.84
2023-05-08T18:16:33.798Z,100873.59
2023-05-08T18:19:00.728Z,100870.94
2023-05-08T18:21:28.723Z,100870.94
2023-05-08T18:23:56.897Z,100877.13
2023-05-08T18:26:24.068Z,100877.13
2023-05-08T18:28:50.808Z,100879.09
2023-05-08T18:31:21.516Z,100884.28
2023-05-08T18:33:47.985Z,100880.69
2023-05-08T18:36:17.048Z,100879.47
2023-05-08T18:38:43.670Z,100884.06
2023-05-08T18:41:15.320Z,100880.31
2023-05-08T18:43:44.769Z,100889.28
2023-05-08T18:46:13.191Z,100887.88
2023-05-08T18:48:42.675Z,100886.50
2023-05-08T18:51:11.019Z,100878.53
2023-05-08T18:53:38.803Z,100878.69
2023-05-08T18:56:05.554Z,100886.25
2023-05-08T18:58:32.319Z,100889.28
2023-05-08T19:00:58.858Z,100887.63
2023-05-08T19:03:25.585Z,100901.56
2023-05-08T19:05:54.581Z,100896.25
2023-05-08T19:08:21.026Z,100899.34
2023-05-08T19:10:50.301Z,100899.31
2023-05-08T19:13:16.830Z,100893.16
2023-05-08T19:15:44.250Z,100899.00
2023-05-08T19:18:10.782Z,100896.44
2023-05-08T19:20:37.457Z,100896.16
2023-05-08T19:23:03.820Z,100897.78
2023-05-08T19:25:30.168Z,100898.34
2023-05-08T19:27:59.474Z,100902.22
2023-05-08T19:30:25.847Z,100905.16
2023-05-08T19:32:52.214Z,100902.75
2023-05-08T19:35:18.590Z,100903.72
2023-05-08T19:37:45.837Z,100909.03
2023-05-08T19:40:13.766Z,100899.25
2023-05-08T19:42:40.633Z,100901.91
2023-05-08T19:45:07.950Z,100901.25
2023-05-08T19:47:35.186Z,100894.56
2023-05-08T19:50:01.602Z,100887.19
2023-05-08T19:52:28.392Z,100890.28
2023-05-08T19:54:54.882Z,100890.00
2023-05-08T19:57:23.693Z,100883.88
2023-05-08T19:59:50.103Z,100886.66
2023-05-08T20:02:16.719Z,100886.66
2023-05-08T20:05:07.944Z,100893.38
2023-05-08T20:07:29.756Z,100884.97
2023-05-08T20:09:57.352Z,100887.78
2023-05-08T20:12:23.696Z,100892.47
2023-05-08T20:14:50.111Z,100892.47
2023-05-08T20:17:17.763Z,100891.78
2023-05-08T20:22:11.166Z,100897.63
2023-05-08T20:24:40.939Z,100893.56
2023-05-08T20:27:07.397Z,100900.38
2023-05-08T20:29:36.699Z,100899.94
2023-05-08T20:32:08.144Z,100894.34
2023-05-08T20:34:34.662Z,100892.06
2023-05-08T20:37:04.370Z,100892.56
2023-05-08T20:39:31.508Z,100889.22
2023-05-08T20:41:57.847Z,100889.72
2023-05-08T20:44:24.422Z,100880.22
2023-05-08T20:46:51.758Z,100880.63
2023-05-08T20:49:18.211Z,100880.91
2023-05-08T20:51:44.542Z,100883.78
2023-05-08T20:54:13.542Z,100882.09
2023-05-08T20:56:40.087Z,100879.13
2023-05-08T20:59:06.799Z,100865.38
2023-05-08T21:01:33.211Z,100872.19
2023-05-08T21:03:59.621Z,100859.41
2023-05-08T21:06:26.022Z,100861.38
2023-05-08T21:08:55.258Z,100866.53
2023-05-08T21:11:21.925Z,100866.19
2023-05-08T21:13:53.201Z,100854.44
2023-05-08T21:16:19.600Z,100854.00
2023-05-08T21:18:46.078Z,100858.72
2023-05-08T21:21:19.875Z,100855.50
2023-05-08T21:23:48.922Z,100847.22
2023-05-08T21:26:23.266Z,100854.19
2023-05-08T21:28:50.050Z,100849.75
2023-05-08T21:31:16.431Z,100854.47
2023-05-08T21:33:47.560Z,100851.97
2023-05-08T21:36:14.023Z,100851.38
2023-05-08T21:38:41.567Z,100854.25
2023-05-08T21:41:08.561Z,100846.84
2023-05-08T21:43:37.826Z,100848.72
2023-05-08T21:46:05.784Z,100842.41
2023-05-08T21:48:32.301Z,100847.28
2023-05-08T21:50:59.431Z,100848.25
2023-05-08T21:53:28.427Z,100840.19
2023-05-08T21:55:54.795Z,100850.78
2023-05-08T21:58:23.524Z,100843.66
2023-05-08T22:00:49.909Z,100849.94
2023-05-08T22:03:16.428Z,100845.47
2023-05-08T22:05:42.951Z,100840.78
2023-05-08T22:08:09.392Z,100842.19
2023-05-08T22:10:35.883Z,100839.16
2023-05-08T22:13:02.981Z,100825.81
2023-05-08T22:15:30.520Z,100830.91
2023-05-08T22:17:58.382Z,100823.03
2023-05-08T22:20:25.123Z,100815.66
2023-05-08T22:22:51.639Z,100813.06
2023-05-08T22:25:18.106Z,100821.72
2023-05-08T22:27:45.659Z,100812.28
2023-05-08T22:30:12.270Z,100809.75
2023-05-08T22:32:38.796Z,100806.69
2023-05-08T22:35:06.320Z,100803.34
2023-05-08T22:37:32.723Z,100807.81
2023-05-08T22:39:59.165Z,100802.22
2023-05-08T22:42:25.770Z,100798.31
2023-05-08T22:44:52.416Z,100794.66
2023-05-08T22:47:23.404Z,100794.66
2023-05-08T22:49:50.336Z,100786.56
2023-05-08T22:52:17.019Z,100786.31
2023-05-08T22:54:43.495Z,100782.81
2023-05-08T22:57:09.892Z,100776.94
2023-05-08T22:59:36.487Z,100772.00
2023-05-08T23:02:03.029Z,100771.59
2023-05-08T23:04:29.574Z,100779.53
2023-05-08T23:06:56.018Z,100776.22
2023-05-08T23:09:22.877Z,100771.44
2023-05-08T23:11:52.129Z,100774.03
2023-05-08T23:14:21.100Z,100779.16
2023-05-08T23:16:50.190Z,100773.66
2023-05-08T23:19:16.659Z,100775.88
2023-05-08T23:21:43.119Z,100768.72
2023-05-08T23:24:12.178Z,100777.31
2023-05-08T23:26:42.208Z,100767.63
2023-05-08T23:29:08.701Z,100762.13
2023-05-08T23:31:35.131Z,100760.97
2023-05-08T23:34:03.918Z,100758.13
2023-05-08T23:36:30.339Z,100757.22
2023-05-08T23:38:56.937Z,100763.00
2023-05-08T23:41:24.128Z,100752.94
2023-05-08T23:43:50.611Z,100751.75
2023-05-08T23:46:19.231Z,100762.56
2023-05-08T23:48:45.609Z,100759.47
2023-05-08T23:51:12.055Z,100751.09
2023-05-08T23:53:38.642Z,100747.97
2023-05-08T23:56:05.700Z,100743.91
2023-05-08T23:58:32.082Z,100742.47
